Time;durP1;ratioP1;P1;durP2;ratioP2;P2;SDS_P1;SDS_P2;PMS_P1;PMS_P2;Temp;Humidity;BMP_temperature;BMP_pressure;BME280_temperature;BME280_humidity;BME280_pressure;Samples;Min_cycle;Max_cycle;Signal;HPM_P1;HPM_P2
2021/10/04 00:00:46;;;;;;;13.85;7.85;;;;;;;3.87;86.94;101947.91;5031433;28;20048;-76
2021/10/04 00:03:11;;;;;;;8.98;7.97;;;;;;;3.86;86.96;101946.19;5050019;28;20049;-76
2021/10/04 00:05:37;;;;;;;7.18;6.63;;;;;;;3.91;87.58;101943.63;5031845;28;20040;-77
2021/10/04 00:08:03;;;;;;;6.70;6.28;;;;;;;3.91;87.03;101941.91;5049961;28;20040;-76
2021/10/04 00:10:29;;;;;;;7.68;7.18;;;;;;;3.94;86.64;101947.09;5016232;28;20041;-78
2021/10/04 00:12:56;;;;;;;10.40;9.52;;;;;;;3.84;86.75;101939.28;5049789;28;20045;-78
2021/10/04 00:15:22;;;;;;;5.38;5.13;;;;;;;3.71;87.52;101946.09;5032058;28;20037;-78
2021/10/04 00:17:48;;;;;;;8.85;7.13;;;;;;;3.58;87.75;101947.72;5050179;28;20487;-77
2021/10/04 00:20:15;;;;;;;6.70;6.20;;;;;;;3.42;87.66;101945.00;5049643;28;20099;-78
2021/10/04 00:22:41;;;;;;;5.55;5.20;;;;;;;3.36;88.22;101950.13;5049846;28;20123;-75
2021/10/04 00:25:07;;;;;;;8.88;8.18;;;;;;;3.31;88.33;101956.94;5048292;28;20123;-75
2021/10/04 00:27:33;;;;;;;10.20;7.85;;;;;;;3.36;88.60;101950.13;5049285;28;20076;-76
2021/10/04 00:30:05;;;;;;;13.38;6.95;;;;;;;3.31;89.00;101952.66;5049577;28;20409;-78
2021/10/04 00:32:40;;;;;;;7.40;6.47;;;;;;;3.29;88.79;101945.75;5031776;28;20044;-78
2021/10/04 00:35:06;;;;;;;8.00;7.18;;;;;;;3.37;89.27;101949.28;5032045;28;20037;-77
2021/10/04 00:37:33;;;;;;;22.45;5.93;;;;;;;3.49;89.24;101949.38;5035471;28;20071;-77
2021/10/04 00:39:59;;;;;;;9.70;6.18;;;;;;;3.51;88.85;101953.69;5056392;28;20122;-76
2021/10/04 00:42:25;;;;;;;6.22;5.90;;;;;;;3.30;88.43;101955.25;5060211;28;20572;-78
2021/10/04 00:44:51;;;;;;;6.93;6.25;;;;;;;3.19;88.53;101956.84;5065950;28;20033;-76
2021/10/04 00:47:17;;;;;;;20.67;7.47;;;;;;;3.14;89.03;101955.09;5065800;28;20045;-77
2021/10/04 00:49:43;;;;;;;6.95;6.50;;;;;;;3.09;88.69;101955.91;5055418;28;20041;-78
2021/10/04 00:52:09;;;;;;;9.07;8.13;;;;;;;3.03;89.05;101958.44;5050347;28;20394;-77
2021/10/04 00:54:36;;;;;;;43.10;6.35;;;;;;;2.93;89.13;101970.38;5049544;28;20037;-75
2021/10/04 00:57:02;;;;;;;7.82;7.07;;;;;;;2.83;89.14;101963.38;5049745;28;20080;-78
2021/10/04 00:59:28;;;;;;;7.20;6.60;;;;;;;2.82;89.17;101955.63;5031358;28;20044;-77
2021/10/04 01:01:54;;;;;;;5.40;4.97;;;;;;;2.82;89.56;101953.91;5031646;28;20494;-78
2021/10/04 01:04:25;;;;;;;6.95;6.45;;;;;;;2.82;89.94;101959.06;5031370;28;20049;-78
2021/10/04 01:06:58;;;;;;;6.43;5.75;;;;;;;2.86;90.27;101955.69;5049470;28;20033;-78
2021/10/04 01:09:24;;;;;;;8.77;8.05;;;;;;;2.94;90.48;101966.09;5031602;28;20052;-77
2021/10/04 01:11:51;;;;;;;5.70;5.28;;;;;;;2.97;90.05;101960.97;5049280;28;20114;-78
2021/10/04 01:14:17;;;;;;;6.32;5.88;;;;;;;2.97;90.37;101966.13;5047831;28;20051;-78
2021/10/04 01:16:43;;;;;;;6.90;6.50;;;;;;;2.95;90.33;101963.50;5015021;28;20127;-77
2021/10/04 01:19:10;;;;;;;6.88;6.07;;;;;;;2.96;90.50;101960.09;5047699;28;20037;-75
2021/10/04 01:21:36;;;;;;;4.47;4.18;;;;;;;2.90;89.92;101964.31;5031177;28;20124;-77
2021/10/04 01:24:03;;;;;;;4.47;4.22;;;;;;;2.85;90.04;101964.25;5049058;28;20486;-78
2021/10/04 01:26:29;;;;;;;7.32;6.93;;;;;;;2.82;89.79;101960.78;5051524;28;20040;-79
2021/10/04 01:28:55;;;;;;;40.95;6.15;;;;;;;2.80;90.42;101965.94;5052886;28;20033;-79
2021/10/04 01:31:24;;;;;;;10.02;9.10;;;;;;;2.78;90.33;101966.78;5051656;28;20196;-77
2021/10/04 01:33:50;;;;;;;7.88;6.32;;;;;;;2.79;90.13;101964.19;5051829;28;20057;-77
2021/10/04 01:36:16;;;;;;;20.25;10.02;;;;;;;2.84;90.26;101954.81;5051463;28;20049;-77
2021/10/04 01:38:43;;;;;;;8.82;8.10;;;;;;;2.89;90.54;101963.44;5034603;28;20083;-76
2021/10/04 01:41:09;;;;;;;7.78;7.05;;;;;;;2.90;90.74;101965.19;5034841;28;20106;-78
2021/10/04 01:43:35;;;;;;;11.48;8.18;;;;;;;2.86;90.62;101963.41;5052360;28;20041;-76
2021/10/04 01:46:01;;;;;;;9.07;7.88;;;;;;;2.85;90.82;101964.25;5052425;28;20136;-76
2021/10/04 01:48:27;;;;;;;13.50;6.57;;;;;;;2.85;90.42;101965.97;5052169;28;20139;-75
2021/10/04 01:50:53;;;;;;;7.00;6.40;;;;;;;2.86;90.58;101958.25;5051160;28;20525;-76
2021/10/04 01:53:19;;;;;;;7.47;6.95;;;;;;;2.95;91.10;101966.09;5052344;28;20067;-77
2021/10/04 01:55:45;;;;;;;18.70;8.60;;;;;;;2.91;90.88;101972.06;5050774;28;20076;-76
2021/10/04 01:58:11;;;;;;;7.90;7.25;;;;;;;2.91;90.77;101971.22;5052185;28;20454;-77
2021/10/04 02:00:37;;;;;;;7.13;6.63;;;;;;;2.87;90.87;101972.91;5051928;28;20154;-75
2021/10/04 02:03:03;;;;;;;9.98;9.10;;;;;;;2.81;91.40;101970.25;5034165;28;20040;-77
2021/10/04 02:05:29;;;;;;;9.02;7.53;;;;;;;2.82;91.25;101977.13;5051773;28;20107;-77
2021/10/04 02:07:56;;;;;;;8.05;6.70;;;;;;;2.79;91.12;101976.22;5052231;28;20080;-76
2021/10/04 02:10:27;;;;;;;14.70;7.60;;;;;;;2.76;90.80;101982.22;5051956;28;20110;-76
2021/10/04 02:12:54;;;;;;;9.13;8.40;;;;;;;2.75;90.83;101975.31;5017885;28;20609;-76
2021/10/04 02:15:20;;;;;;;8.25;7.65;;;;;;;2.73;90.96;101974.44;5051882;28;20103;-77
2021/10/04 02:17:46;;;;;;;7.75;7.15;;;;;;;2.76;91.28;101984.81;5051706;28;20506;-76
2021/10/04 02:20:14;;;;;;;8.23;7.47;;;;;;;2.82;91.02;101990.03;5051599;28;20045;-76
2021/10/04 02:22:40;;;;;;;4.78;4.57;;;;;;;2.85;90.90;101987.47;5033754;28;20509;-77
2021/10/04 02:25:07;;;;;;;7.95;6.90;;;;;;;2.79;91.49;101982.25;5051762;28;20086;-76
2021/10/04 02:27:32;;;;;;;10.88;6.15;;;;;;;2.75;91.50;101990.78;5051558;28;20136;-77
2021/10/04 02:29:58;;;;;;;9.25;4.90;;;;;;;2.65;91.03;101995.84;5051535;28;20454;-76
2021/10/04 02:32:24;;;;;;;4.70;4.40;;;;;;;2.64;91.01;101987.25;5033789;28;20064;-76
2021/10/04 02:34:50;;;;;;;4.95;4.57;;;;;;;2.57;90.99;101991.47;5051326;28;20493;-75
2021/10/04 02:37:16;;;;;;;7.78;7.18;;;;;;;2.58;90.97;101993.22;5051430;28;20051;-77
2021/10/04 02:39:42;;;;;;;6.63;6.30;;;;;;;2.47;90.98;101988.75;5050941;28;20045;-76
2021/10/04 02:42:08;;;;;;;6.53;6.00;;;;;;;2.47;90.88;101992.19;5051468;28;20426;-78
2021/10/04 02:44:34;;;;;;;9.20;7.97;;;;;;;2.52;90.92;101990.53;5033247;28;20099;-76
2021/10/04 02:47:00;;;;;;;11.93;8.90;;;;;;;2.59;91.45;101999.19;5051458;28;20037;-77
2021/10/04 02:49:26;;;;;;;7.45;6.80;;;;;;;2.56;91.56;101994.00;5051232;28;20168;-77
2021/10/04 02:51:52;;;;;;;5.05;4.75;;;;;;;2.48;91.63;101990.50;5050994;28;20044;-75
2021/10/04 02:54:18;;;;;;;7.80;5.72;;;;;;;2.42;91.63;101995.56;5051314;28;20044;-77
2021/10/04 02:56:44;;;;;;;5.95;5.65;;;;;;;2.41;91.41;101994.69;5050846;28;20383;-78
2021/10/04 02:59:13;;;;;;;5.07;4.68;;;;;;;2.36;91.37;101990.31;5032881;28;20048;-78
2021/10/04 03:01:39;;;;;;;4.93;4.63;;;;;;;2.33;91.31;101990.28;5050848;28;20052;-77
2021/10/04 03:04:05;;;;;;;8.63;7.75;;;;;;;2.27;91.22;101987.63;5056253;28;20037;-78
2021/10/04 03:06:31;;;;;;;8.57;5.97;;;;;;;2.23;91.43;101985.84;5060755;28;20032;-81
2021/10/04 03:08:58;;;;;;;6.07;5.70;;;;;;;2.25;91.21;101992.78;5043606;28;20037;-78
2021/10/04 03:11:23;;;;;;;7.72;7.15;;;;;;;2.19;91.38;101984.97;5041292;28;20076;-77
2021/10/04 03:13:49;;;;;;;5.97;5.50;;;;;;;2.19;91.24;101982.38;5054854;28;20120;-79
2021/10/04 03:16:15;;;;;;;6.68;6.03;;;;;;;2.14;91.02;101984.03;5024600;28;20037;-80
2021/10/04 03:18:41;;;;;;;4.50;4.20;;;;;;;2.21;91.29;101991.00;5061935;28;20596;-77
2021/10/04 03:21:07;;;;;;;7.68;6.68;;;;;;;2.11;90.76;101981.41;5061102;28;20067;-78
2021/10/04 03:23:33;;;;;;;4.10;3.92;;;;;;;2.12;90.74;102000.31;5058971;28;20395;-78
2021/10/04 03:25:59;;;;;;;5.93;5.53;;;;;;;2.09;90.84;101998.56;5040584;28;20043;-79
2021/10/04 03:28:25;;;;;;;8.55;4.85;;;;;;;2.07;90.91;102003.69;5032699;28;20433;-80
2021/10/04 03:30:51;;;;;;;11.75;6.53;;;;;;;2.04;90.97;102001.06;5050280;28;20068;-77
2021/10/04 03:33:17;;;;;;;6.55;5.97;;;;;;;2.03;91.33;102007.03;5050603;28;20087;-78
2021/10/04 03:35:43;;;;;;;3.63;3.50;;;;;;;2.02;91.21;102007.91;5032218;28;20148;-77
2021/10/04 03:38:10;;;;;;;11.32;5.40;;;;;;;2.02;91.25;102009.63;5049906;28;20131;-78
2021/10/04 03:40:36;;;;;;;11.57;7.57;;;;;;;2.03;91.33;102001.88;5050566;28;20102;-78
2021/10/04 03:43:02;;;;;;;7.00;4.93;;;;;;;2.03;91.33;102007.03;5051677;28;20041;-76
2021/10/04 03:45:28;;;;;;;5.10;4.70;;;;;;;2.04;91.29;102006.22;5050164;28;20529;-79
2021/10/04 03:47:53;;;;;;;7.68;5.32;;;;;;;2.02;91.44;102005.34;5049738;28;20041;-79
2021/10/04 03:50:29;;;;;;;3.78;3.58;;;;;;;1.97;91.16;102004.38;5050111;28;20045;-82
2021/10/04 03:53:10;;;;;;;6.53;5.85;;;;;;;1.91;91.21;102003.44;5035134;28;20573;-83
2021/10/04 03:55:39;;;;;;;6.25;5.68;;;;;;;2.00;90.98;102017.31;4984990;28;20041;-81
2021/10/04 03:58:05;;;;;;;9.07;6.25;;;;;;;2.10;90.99;102016.59;5033288;28;20566;-79
2021/10/04 04:00:31;;;;;;;4.85;4.55;;;;;;;2.13;91.09;102014.94;5049885;28;20048;-79
2021/10/04 04:02:58;;;;;;;5.55;5.15;;;;;;;2.29;90.95;102016.88;5032686;28;20135;-79
2021/10/04 04:05:24;;;;;;;6.18;5.88;;;;;;;2.22;90.38;102004.75;5049824;28;20045;-76
2021/10/04 04:07:50;;;;;;;5.50;5.18;;;;;;;2.43;89.94;102013.63;5050073;28;20091;-78
2021/10/04 04:10:22;;;;;;;11.35;6.50;;;;;;;2.57;88.90;102006.06;5051066;28;20045;-79
2021/10/04 04:12:49;;;;;;;6.88;6.35;;;;;;;3.19;88.49;102009.34;5050517;28;20086;-76
2021/10/04 04:15:15;;;;;;;7.05;6.65;;;;;;;3.82;85.93;101996.13;5050347;28;20044;-77
2021/10/04 04:17:41;;;;;;;7.82;6.60;;;;;;;4.43;82.46;102002.50;5054264;28;20051;-77
2021/10/04 04:20:08;;;;;;;4.03;3.72;;;;;;;5.11;78.91;102002.72;5063611;28;20044;-75
2021/10/04 04:22:34;;;;;;;4.68;3.63;;;;;;;5.35;76.02;102009.69;5064366;28;20036;-75
2021/10/04 04:24:59;;;;;;;6.78;5.25;;;;;;;5.56;73.09;102009.69;5032307;28;20048;-76
2021/10/04 04:27:25;;;;;;;5.22;4.97;;;;;;;6.20;71.05;102007.94;5047754;28;20067;-76
2021/10/04 04:29:51;;;;;;;5.35;4.88;;;;;;;6.43;70.36;102004.41;5045823;28;20041;-77
2021/10/04 04:32:18;;;;;;;5.20;4.97;;;;;;;6.18;70.04;102012.25;5044560;28;20048;-78
2021/10/04 04:34:43;;;;;;;6.10;5.63;;;;;;;6.49;69.14;102015.63;5044706;28;20094;-76
2021/10/04 04:37:10;;;;;;;5.60;5.30;;;;;;;6.75;68.39;102002.56;5028144;28;20461;-78
2021/10/04 04:39:35;;;;;;;7.13;5.93;;;;;;;6.39;68.96;102020.84;5046185;28;20045;-78
2021/10/04 04:42:03;;;;;;;6.88;6.40;;;;;;;6.70;67.98;102019.91;5027349;28;20426;-77
2021/10/04 04:44:29;;;;;;;5.97;5.53;;;;;;;7.26;66.28;102011.81;5028444;28;20907;-79
2021/10/04 04:46:55;;;;;;;7.25;6.60;;;;;;;7.58;64.25;102008.97;4992025;28;20586;-77
2021/10/04 04:49:26;;;;;;;6.03;5.50;;;;;;;7.77;63.68;102013.13;4961365;28;20435;-76
2021/10/04 04:51:55;;;;;;;12.97;8.13;;;;;;;7.86;64.09;102015.63;4992435;28;20493;-81
2021/10/04 04:54:21;;;;;;;6.97;6.38;;;;;;;8.32;62.62;102016.09;5026772;28;20281;-79
2021/10/04 04:56:47;;;;;;;5.97;5.35;;;;;;;8.25;62.72;102019.59;5026915;28;20043;-77
2021/10/04 04:59:15;;;;;;;8.48;6.47;;;;;;;7.49;63.85;102019.44;5026849;28;20144;-80
2021/10/04 05:01:42;;;;;;;9.30;8.60;;;;;;;6.89;65.67;102021.53;5028768;28;20045;-79
2021/10/04 05:04:10;;;;;;;6.68;6.05;;;;;;;7.04;66.23;102018.84;5014282;28;20518;-82
2021/10/04 05:06:36;;;;;;;7.65;7.15;;;;;;;6.99;65.91;102017.16;5031588;28;20120;-80
2021/10/04 05:09:02;;;;;;;7.63;6.72;;;;;;;7.09;64.83;102024.03;5011824;28;20048;-78
2021/10/04 05:11:28;;;;;;;8.40;7.60;;;;;;;7.53;64.44;102018.50;5029116;28;20099;-78
2021/10/04 05:13:54;;;;;;;10.13;6.47;;;;;;;7.64;63.58;102019.31;5009925;28;20038;-79
2021/10/04 05:16:20;;;;;;;6.18;5.88;;;;;;;7.54;64.27;102022.84;5027721;28;20056;-77
2021/10/04 05:18:46;;;;;;;7.60;7.05;;;;;;;7.37;65.28;102025.56;5027537;28;20041;-81
2021/10/04 05:21:12;;;;;;;11.02;6.53;;;;;;;7.61;65.48;102024.53;5029536;28;20144;-78
2021/10/04 05:23:38;;;;;;;8.73;7.78;;;;;;;7.47;65.71;102026.34;5030792;28;20057;-82
2021/10/04 05:26:04;;;;;;;7.22;6.65;;;;;;;7.42;65.91;102030.75;5029689;28;20049;-79
2021/10/04 05:28:29;;;;;;;15.48;7.85;;;;;;;7.36;66.36;102028.19;5034306;28;20049;-81
2021/10/04 05:30:55;;;;;;;7.38;6.80;;;;;;;7.79;65.42;102032.16;5030657;28;20487;-81
2021/10/04 05:33:21;;;;;;;9.57;8.68;;;;;;;9.05;61.09;102034.28;5030342;28;20054;-82
2021/10/04 05:35:48;;;;;;;6.93;6.43;;;;;;;8.31;63.00;102041.25;5028805;28;20048;-83
2021/10/04 05:38:13;;;;;;;5.65;5.25;;;;;;;8.34;63.67;102037.78;5033312;28;20580;-80
2021/10/04 05:40:39;;;;;;;7.03;6.28;;;;;;;8.43;63.83;102044.59;5030773;28;20045;-78
2021/10/04 05:43:05;;;;;;;8.55;7.05;;;;;;;8.79;63.42;102042.44;5015086;28;20140;-79
2021/10/04 05:45:31;;;;;;;7.55;7.03;;;;;;;8.53;63.93;102039.28;5050378;28;20048;-80
2021/10/04 05:47:57;;;;;;;8.32;7.13;;;;;;;8.93;63.30;102047.50;5048716;28;20103;-80
2021/10/04 05:50:25;;;;;;;8.00;7.30;;;;;;;9.25;61.99;102047.91;5033188;28;20041;-79
2021/10/04 05:52:52;;;;;;;6.85;5.97;;;;;;;9.41;61.80;102052.00;5031274;28;20080;-80
2021/10/04 05:55:18;;;;;;;6.15;5.65;;;;;;;9.68;60.75;102047.25;5015830;28;20049;-77
2021/10/04 05:57:44;;;;;;;7.50;6.88;;;;;;;9.32;62.80;102052.16;5049265;28;20045;-79
2021/10/04 06:00:11;;;;;;;7.82;6.40;;;;;;;9.38;62.88;102046.84;5049743;28;20045;-78
2021/10/04 06:02:37;;;;;;;7.28;6.78;;;;;;;9.80;62.79;102054.88;5025117;28;20055;-78
2021/10/04 06:05:04;;;;;;;6.68;6.10;;;;;;;10.05;59.78;102050.09;5014667;28;20144;-78
2021/10/04 06:07:30;;;;;;;7.97;7.28;;;;;;;9.67;61.99;102048.13;5031741;28;20136;-77
2021/10/04 06:09:56;;;;;;;8.77;7.88;;;;;;;9.86;61.37;102054.78;5014681;28;20045;-77
2021/10/04 06:12:28;;;;;;;25.23;6.00;;;;;;;9.94;59.05;102047.69;5048282;28;20056;-78
2021/10/04 06:14:56;;;;;;;8.95;7.47;;;;;;;9.82;62.41;102051.34;5026442;28;20083;-79
2021/10/04 06:17:22;;;;;;;9.05;8.20;;;;;;;9.80;61.96;102054.88;5039788;28;20061;-78
2021/10/04 06:19:48;;;;;;;6.25;5.57;;;;;;;10.15;59.84;102055.16;5041168;28;20045;-79
2021/10/04 06:22:15;;;;;;;6.60;6.10;;;;;;;10.51;59.81;102052.75;5040208;28;20040;-78
2021/10/04 06:24:41;;;;;;;7.88;7.28;;;;;;;10.45;57.77;102054.63;5020189;28;20046;-80
2021/10/04 06:27:07;;;;;;;6.72;5.72;;;;;;;10.33;57.56;102054.00;5003784;28;20053;-77
2021/10/04 06:29:33;;;;;;;10.85;6.85;;;;;;;10.63;57.06;102050.81;5040040;28;20053;-79
2021/10/04 06:32:00;;;;;;;9.57;5.22;;;;;;;10.90;56.70;102054.56;5004498;28;20563;-77
2021/10/04 06:34:26;;;;;;;7.10;5.70;;;;;;;10.82;57.19;102057.38;5019192;28;20037;-79
2021/10/04 06:36:52;;;;;;;5.05;4.55;;;;;;;10.90;56.93;102062.41;5038441;28;20041;-79
2021/10/04 06:39:18;;;;;;;9.15;6.13;;;;;;;11.10;56.71;102056.78;5037564;28;20049;-79
2021/10/04 06:41:44;;;;;;;18.30;6.28;;;;;;;11.91;53.80;102054.03;5019630;28;20037;-80
2021/10/04 06:44:10;;;;;;;7.25;6.72;;;;;;;11.29;55.52;102064.19;5004826;28;20045;-78
2021/10/04 06:46:37;;;;;;;15.20;7.15;;;;;;;11.39;56.30;102060.47;5039935;28;20037;-79
2021/10/04 06:49:03;;;;;;;7.88;7.07;;;;;;;11.38;54.70;102064.00;5020243;28;20132;-80
2021/10/04 06:51:30;;;;;;;7.53;6.88;;;;;;;11.26;55.66;102066.88;5020010;28;20540;-79
2021/10/04 06:53:56;;;;;;;12.93;6.55;;;;;;;12.03;54.08;102061.56;5039058;28;20033;-80
2021/10/04 06:56:22;;;;;;;7.20;6.63;;;;;;;13.48;49.15;102049.53;5037041;28;20060;-80
2021/10/04 06:58:48;;;;;;;5.55;4.68;;;;;;;12.47;50.08;102047.28;5027871;28;20069;-80
2021/10/04 07:01:14;;;;;;;6.82;5.68;;;;;;;12.50;50.81;102055.94;5010055;28;20427;-80
2021/10/04 07:03:40;;;;;;;8.35;6.47;;;;;;;11.83;52.07;102058.59;5024226;28;20049;-76
2021/10/04 07:06:06;;;;;;;8.98;4.78;;;;;;;11.77;52.91;102048.28;5029480;28;20111;-80
2021/10/04 07:08:35;;;;;;;5.65;5.07;;;;;;;11.45;53.38;102055.09;5028869;28;20048;-80
2021/10/04 07:11:01;;;;;;;9.43;6.50;;;;;;;11.89;51.79;102061.91;5027665;28;20069;-79
2021/10/04 07:13:28;;;;;;;6.15;5.68;;;;;;;11.05;54.21;102053.41;5027938;28;20087;-80
2021/10/04 07:15:57;;;;;;;10.52;7.30;;;;;;;11.20;54.97;102064.38;5014658;28;20037;-78
2021/10/04 07:18:23;;;;;;;6.55;5.95;;;;;;;11.08;55.55;102067.28;5048424;28;20051;-78
2021/10/04 07:20:49;;;;;;;7.00;5.30;;;;;;;11.62;54.07;102073.00;5026146;28;20049;-79
2021/10/04 07:23:15;;;;;;;20.15;5.50;;;;;;;12.93;49.83;102055.56;5047983;28;20541;-77
2021/10/04 07:25:41;;;;;;;5.28;4.78;;;;;;;12.60;50.48;102066.19;5046061;28;20063;-77
2021/10/04 07:28:11;;;;;;;3.88;3.58;;;;;;;11.24;53.65;102075.66;5048584;28;20053;-78
2021/10/04 07:30:37;;;;;;;6.28;5.07;;;;;;;11.49;53.18;102075.06;4973834;28;20132;-76
2021/10/04 07:33:03;;;;;;;8.15;5.75;;;;;;;12.20;51.79;102077.72;5045448;28;20055;-78
2021/10/04 07:35:29;;;;;;;10.13;5.00;;;;;;;12.50;51.38;102074.28;5046974;28;20044;-78
2021/10/04 07:37:55;;;;;;;6.05;5.50;;;;;;;12.58;51.04;102073.22;5011836;28;20136;-78
2021/10/04 07:40:22;;;;;;;5.05;4.65;;;;;;;12.38;50.59;102072.00;5028025;28;20041;-79
2021/10/04 07:42:49;;;;;;;8.80;4.43;;;;;;;11.75;52.95;102074.47;5017940;28;20471;-78
2021/10/04 07:45:15;;;;;;;6.90;4.45;;;;;;;12.01;51.94;102079.06;4992468;28;20047;-77
2021/10/04 07:47:41;;;;;;;5.93;5.50;;;;;;;12.77;49.62;102077.91;5009513;28;20438;-77
2021/10/04 07:50:10;;;;;;;7.72;5.45;;;;;;;12.58;49.48;102078.44;5034932;28;20045;-80
2021/10/04 07:52:37;;;;;;;8.63;5.47;;;;;;;11.82;51.69;102067.34;5027841;28;20049;-81
2021/10/04 07:55:04;;;;;;;9.63;5.90;;;;;;;11.82;52.30;102070.81;5033354;28;20052;-80
2021/10/04 07:57:30;;;;;;;6.35;5.50;;;;;;;13.36;48.29;102070.91;5032288;28;20088;-78
2021/10/04 07:59:55;;;;;;;6.93;5.10;;;;;;;13.73;47.19;102065.38;5029788;28;20073;-79
2021/10/04 08:02:21;;;;;;;7.15;4.55;;;;;;;12.20;51.14;102062.00;5028630;28;20526;-78
2021/10/04 08:04:47;;;;;;;4.47;4.07;;;;;;;12.66;49.89;102063.38;5025481;28;20045;-79
2021/10/04 08:07:13;;;;;;;7.03;4.35;;;;;;;12.63;50.16;102066.09;5024372;28;20098;-78
2021/10/04 08:09:39;;;;;;;7.15;5.28;;;;;;;14.02;46.92;102056.53;5024124;28;20506;-78
2021/10/04 08:12:05;;;;;;;5.18;3.92;;;;;;;13.26;48.21;102058.13;5016775;28;20470;-78
2021/10/04 08:14:34;;;;;;;4.57;4.28;;;;;;;13.46;46.64;102055.75;5028416;28;20044;-78
2021/10/04 08:17:00;;;;;;;4.55;4.25;;;;;;;12.80;49.01;102064.69;4991878;28;20825;-78
2021/10/04 08:19:26;;;;;;;8.77;4.38;;;;;;;13.34;47.47;102061.38;5027556;28;20044;-79
2021/10/04 08:21:53;;;;;;;4.15;3.85;;;;;;;12.57;49.16;102055.75;5004370;28;20047;-78
2021/10/04 08:24:19;;;;;;;4.72;4.38;;;;;;;13.08;48.35;102054.28;5022131;28;20041;-79
2021/10/04 08:26:46;;;;;;;4.47;4.18;;;;;;;13.91;46.08;102059.50;5024897;28;20045;-78
2021/10/04 08:29:13;;;;;;;12.60;4.32;;;;;;;13.77;46.21;102050.38;5023618;28;20123;-79
2021/10/04 08:31:40;;;;;;;10.10;3.83;;;;;;;14.01;44.98;102054.81;5005034;28;20087;-75
2021/10/04 08:34:06;;;;;;;4.60;4.22;;;;;;;13.95;45.67;102058.50;5005953;28;20065;-76
2021/10/04 08:36:33;;;;;;;6.00;4.75;;;;;;;11.49;52.04;102064.59;5007622;28;20038;-77
2021/10/04 08:38:59;;;;;;;3.67;3.25;;;;;;;12.19;49.04;102059.41;5012583;28;20053;-76
2021/10/04 08:41:25;;;;;;;4.63;4.22;;;;;;;12.58;48.68;102052.25;5025788;28;20717;-78
2021/10/04 08:43:53;;;;;;;3.65;3.35;;;;;;;12.22;49.33;102060.19;5005732;28;20042;-78
2021/10/04 08:46:19;;;;;;;4.18;3.80;;;;;;;13.23;47.54;102061.72;5024561;28;20045;-78
2021/10/04 08:48:48;;;;;;;12.25;3.95;;;;;;;13.39;46.22;102056.84;5024203;28;20533;-76
2021/10/04 08:51:14;;;;;;;4.93;4.22;;;;;;;12.17;50.01;102062.06;5007146;28;20045;-78
2021/10/04 08:53:40;;;;;;;3.75;3.45;;;;;;;11.96;50.45;102063.50;5022721;28;20072;-77
2021/10/04 08:56:06;;;;;;;6.45;4.57;;;;;;;11.90;51.21;102050.56;4992614;28;20045;-77
2021/10/04 08:58:32;;;;;;;3.45;3.20;;;;;;;13.45;47.45;102062.75;5025876;28;20407;-78
2021/10/04 09:00:59;;;;;;;3.75;3.35;;;;;;;12.96;48.68;102062.47;5021828;28;20120;-81
2021/10/04 09:03:25;;;;;;;4.35;4.05;;;;;;;12.57;48.75;102067.09;5010638;28;20088;-78
2021/10/04 09:05:57;;;;;;;2.75;2.55;;;;;;;10.79;53.08;102072.25;5003203;28;20519;-77
2021/10/04 09:08:23;;;;;;;4.47;4.18;;;;;;;11.05;53.04;102074.31;5021783;28;20053;-76
2021/10/04 09:10:55;;;;;;;5.30;3.78;;;;;;;10.86;53.00;102068.63;5013907;28;20048;-77
2021/10/04 09:13:21;;;;;;;5.80;5.30;;;;;;;10.51;54.53;102064.06;4993556;28;20054;-75
2021/10/04 09:15:50;;;;;;;3.42;3.08;;;;;;;10.21;55.49;102075.94;5003822;28;21225;-76
2021/10/04 09:18:24;;;;;;;2.78;2.67;;;;;;;10.67;54.45;102073.34;5006836;28;20088;-76
2021/10/04 09:21:02;;;;;;;3.13;2.92;;;;;;;11.31;52.90;102065.03;4988925;28;20042;-78
2021/10/04 09:23:32;;;;;;;2.90;2.70;;;;;;;11.56;52.12;102057.47;4986148;28;20054;-80
2021/10/04 09:25:59;;;;;;;4.07;3.78;;;;;;;11.03;52.59;102061.28;4987595;28;20194;-80
2021/10/04 09:28:27;;;;;;;3.42;3.22;;;;;;;10.82;54.09;102069.56;4985237;28;20054;-81
2021/10/04 09:31:15;;;;;;;1.52;1.33;;;;;;;10.96;52.38;102062.31;4956181;28;20108;-81
2021/10/04 09:34:04;;;;;;;3.67;3.42;;;;;;;10.97;53.03;102057.03;5007327;28;20053;-80
2021/10/04 09:36:32;;;;;;;14.80;2.97;;;;;;;10.96;53.17;102059.72;5008945;28;20057;-77
2021/10/04 09:39:37;;;;;;;2.97;2.88;;;;;;;11.20;52.80;102069.63;5014861;28;20056;-76
2021/10/04 09:42:06;;;;;;;6.20;4.97;;;;;;;11.19;52.89;102062.66;4999160;28;20049;-77
2021/10/04 09:44:52;;;;;;;2.15;2.05;;;;;;;11.40;52.25;102056.97;5023012;28;20064;-77
2021/10/04 09:47:31;;;;;;;4.35;4.00;;;;;;;11.01;52.82;102052.63;5011273;28;20049;-79
2021/10/04 09:50:10;;;;;;;3.88;3.63;;;;;;;11.44;52.15;102052.53;5010925;28;20046;-80
2021/10/04 09:52:55;;;;;;;8.82;3.95;;;;;;;11.82;49.58;102059.47;4995071;28;20034;-78
2021/10/04 09:55:27;;;;;;;2.47;2.13;;;;;;;11.27;50.16;102060.75;5007625;28;20042;-79
2021/10/04 09:57:56;;;;;;;4.18;3.88;;;;;;;10.81;52.11;102046.94;5026940;28;20515;-77
2021/10/04 10:00:22;;;;;;;10.55;3.67;;;;;;;10.67;52.20;102051.56;5027676;28;20049;-78
2021/10/04 10:02:54;;;;;;;2.70;2.60;;;;;;;10.63;52.42;102045.56;5023025;28;20145;-79
2021/10/04 10:05:31;;;;;;;0.98;0.98;;;;;;;10.44;52.02;102046.78;4997956;28;20553;-80
2021/10/04 10:07:57;;;;;;;3.08;2.88;;;;;;;10.76;51.76;102046.19;4989203;28;20050;-79
2021/10/04 10:10:23;;;;;;;5.25;4.95;;;;;;;10.57;52.45;102047.44;4989756;28;20093;-79
2021/10/04 10:12:49;;;;;;;4.03;3.15;;;;;;;10.30;52.15;102047.09;4996558;28;20146;-79
2021/10/04 10:15:21;;;;;;;2.90;2.80;;;;;;;10.52;51.67;102046.66;4973640;28;20050;-78
2021/10/04 10:17:48;;;;;;;7.07;3.67;;;;;;;10.58;50.47;102043.91;5003968;28;20494;-77
2021/10/04 10:20:16;;;;;;;3.53;3.33;;;;;;;10.65;50.94;102053.38;4988429;28;20050;-77
2021/10/04 10:22:47;;;;;;;4.60;4.30;;;;;;;10.50;52.21;102038.00;4985881;28;20047;-76
2021/10/04 10:25:33;;;;;;;4.95;4.50;;;;;;;10.78;51.80;102050.47;5005775;28;20115;-78
2021/10/04 10:28:00;;;;;;;2.47;2.35;;;;;;;10.76;51.60;102047.06;5007998;28;20046;-76
2021/10/04 10:30:26;;;;;;;2.65;2.55;;;;;;;10.85;52.11;102053.81;4992403;28;20546;-78
2021/10/04 10:32:53;;;;;;;3.03;2.83;;;;;;;10.97;52.19;102050.94;5008883;28;20404;-79
2021/10/04 10:35:47;;;;;;;3.60;3.40;;;;;;;10.68;51.61;102048.94;5009392;28;20348;-78
2021/10/04 10:38:14;;;;;;;3.83;3.53;;;;;;;10.76;51.84;102046.19;5034192;28;20046;-80
2021/10/04 10:40:40;;;;;;;4.15;3.13;;;;;;;10.70;51.89;102041.09;5043508;28;20422;-80
2021/10/04 10:43:10;;;;;;;2.05;1.85;;;;;;;10.51;52.36;102043.19;5034612;28;20053;-81
2021/10/04 10:45:47;;;;;;;3.97;3.65;;;;;;;10.49;52.11;102047.59;5013636;28;20053;-79
2021/10/04 10:48:14;;;;;;;2.53;2.33;;;;;;;10.44;51.63;102045.06;4992719;28;20057;-79
2021/10/04 10:50:47;;;;;;;4.63;3.97;;;;;;;10.46;52.26;102039.81;5008394;28;20049;-81
2021/10/04 10:53:27;;;;;;;3.25;2.95;;;;;;;10.48;53.14;102051.06;5008828;28;20045;-80
2021/10/04 10:55:54;;;;;;;3.65;3.45;;;;;;;10.60;52.69;102055.22;5014570;28;20533;-78
2021/10/04 10:58:24;;;;;;;4.93;4.53;;;;;;;10.69;52.22;102044.59;5047376;28;20063;-77
2021/10/04 11:00:50;;;;;;;3.75;2.58;;;;;;;10.72;51.83;102050.59;5028340;28;20056;-77
2021/10/04 11:03:18;;;;;;;6.63;3.25;;;;;;;10.66;52.19;102049.88;5047856;28;20049;-79
2021/10/04 11:05:44;;;;;;;2.08;2.08;;;;;;;10.72;52.33;102060.19;5038667;28;20453;-80
2021/10/04 11:08:11;;;;;;;4.47;1.90;;;;;;;10.67;51.32;102046.34;5058926;28;20048;-77
2021/10/04 11:10:49;;;;;;;3.33;3.13;;;;;;;10.56;51.53;102048.31;5052666;28;20049;-78
2021/10/04 11:13:27;;;;;;;3.92;3.63;;;;;;;10.59;51.94;102053.50;5045203;28;20055;-76
2021/10/04 11:15:59;;;;;;;2.58;2.38;;;;;;;10.74;52.46;102055.78;5042335;28;20044;-75
2021/10/04 11:18:36;;;;;;;11.18;3.88;;;;;;;11.05;52.11;102053.41;5047723;28;20107;-75
2021/10/04 11:21:03;;;;;;;5.13;4.65;;;;;;;10.97;52.13;102048.34;5045707;28;20044;-76
2021/10/04 11:23:29;;;;;;;5.93;3.95;;;;;;;10.83;52.70;102047.78;5047380;28;20037;-75
2021/10/04 11:25:56;;;;;;;4.85;3.38;;;;;;;10.98;52.15;102052.69;5042490;28;20045;-77
2021/10/04 11:28:34;;;;;;;2.78;2.58;;;;;;;11.12;51.96;102055.00;5016253;28;20144;-78
2021/10/04 11:31:03;;;;;;;7.38;3.40;;;;;;;10.94;52.21;102045.78;5046106;28;20049;-75